Buffalo, NY (14225)

6:53 AM EST on December 11, 2016 (GMT -0500)
Cleve Hill | | Change Station
Active Advisory: Winter Weather Advisory Active Notice: Public Information Statement

Elev 686 ft 42.94 °N, 78.77 °W | Updated 3 minutes ago

Light Snow
Light Snow
24.2 °F
Feels Like 24 °F
N
1.0
Wind Variable Wind from SSW
Gusts 4.0 mph

Today
High -- | Low -- °F
--% Chance of Precip.
Yesterday
High -- | Low -- °F
Precip. -- in
Pressure 30.43 in
Visibility 6.0 miles
Clouds Mostly Cloudy 2500 ft
Overcast 3200 ft
Windchill 24 °F
Dew Point 20 °F
Humidity 82%
Rainfall 0.00 in
Snow Depth Not available.
7:36 AM 4:40 PM
Waxing Gibbous, 91% visible
METAR KBUF 111054Z 20007KT 6SM -SN BKN025 OVC032 M04/M08 A3039 RMK AO2 SLP302 P0000 T10441083
Pressure 30.43 in
Visibility 6.0 miles
Clouds Mostly Cloudy 2500 ft
Overcast 3200 ft
Windchill 24 °F
Dew Point 20 °F
Humidity 82%
Rainfall 0.00 in
Snow Depth Not available.
7:36 AM 4:40 PM
Waxing Gibbous, 91% visible
METAR KBUF 111054Z 20007KT 6SM -SN BKN025 OVC032 M04/M08 A3039 RMK AO2 SLP302 P0000 T10441083

10-Day Weather Forecast

Almanac

Astronomy

Dec. 11, 2016 Rise Set
Actual Time
Civil Twilight
Nautical Twilight
Astronomical Twilight
Moon
Length of Visible Light
Length of Day
Tomorrow will be .
, % of the Moon is Illuminated

Today's Extremes

State Highs State Lows

Community

WunderPhotos

Upload Photos

1,956,710 photos uploaded!

WunderBlog® & News

Nearby

Air Quality

  Air Quality AQ Index Pollutant
Not available.

Snow Depth

Station Depth Elevation

Earthquake Activity

City Distance Mag. Time & Date
Minimum magnitude displayed is 2.5.

Coastal Water Temperatures

Place Temperature

Stations

Nearby Weather Stations

Station Location Temp. Windchill Dew Point Humidity Wind Precip. Elev Updated Type
                   

Watches & Warnings

Winter Weather Advisory
Issued: 3:54 AM EST Dec. 11, 2016 – National Weather Service

... Winter Weather Advisory in effect from 1 PM this afternoon to
7 am EST Monday...
... Lake effect Snow Advisory is cancelled...

The National Weather Service in Buffalo has issued a Winter
Weather Advisory for snow... which is in effect from 1 PM this
afternoon to 7 am EST Monday. The lake effect Snow Advisory has
been cancelled.

* Locations... northern Erie County.

* Timing... from this afternoon through early Monday morning.

* Hazards... snow.

* Accumulations... storm totals of 3 to 5 inches.

* Visibilities... a mile at times.

* Impacts... a widespread accumulating snow will produce snow
covered roads and reduced visibilities.

Precautionary/preparedness actions...

A Winter Weather Advisory is normally issued for a variety of
winter weather conditions such as light snow, blowing snow,
sleet, freezing rain and wind chills. While the weather will be
significant, the word advisory implies that severe winter weather
is not anticipated.